sensor_id;sensor_type;location;lat;lon;timestamp;P1;durP1;ratioP1;P2;durP2;ratioP2
32705;SDS011;19094;50.972;3.538;2022-11-27T00:01:57;18.17;;;7.65;;
32705;SDS011;19094;50.972;3.538;2022-11-27T00:04:22;13.07;;;6.93;;
32705;SDS011;19094;50.972;3.538;2022-11-27T00:06:48;16.88;;;7.18;;
32705;SDS011;19094;50.972;3.538;2022-11-27T00:09:14;14.95;;;6.97;;
32705;SDS011;19094;50.972;3.538;2022-11-27T00:11:40;18.50;;;7.00;;
32705;SDS011;19094;50.972;3.538;2022-11-27T00:14:09;13.20;;;6.13;;
32705;SDS011;19094;50.972;3.538;2022-11-27T00:16:36;11.55;;;5.60;;
32705;SDS011;19094;50.972;3.538;2022-11-27T00:19:02;17.05;;;6.30;;
32705;SDS011;19094;50.972;3.538;2022-11-27T00:21:30;11.63;;;5.43;;
32705;SDS011;19094;50.972;3.538;2022-11-27T00:23:57;15.35;;;6.75;;
32705;SDS011;19094;50.972;3.538;2022-11-27T00:26:24;18.25;;;5.97;;
32705;SDS011;19094;50.972;3.538;2022-11-27T00:28:51;13.75;;;5.93;;
32705;SDS011;19094;50.972;3.538;2022-11-27T00:31:18;14.95;;;7.18;;
32705;SDS011;19094;50.972;3.538;2022-11-27T00:33:45;15.55;;;6.35;;
32705;SDS011;19094;50.972;3.538;2022-11-27T00:36:11;14.65;;;6.18;;
32705;SDS011;19094;50.972;3.538;2022-11-27T00:38:38;17.98;;;5.75;;
32705;SDS011;19094;50.972;3.538;2022-11-27T00:41:08;12.23;;;5.65;;
32705;SDS011;19094;50.972;3.538;2022-11-27T00:43:54;10.57;;;5.45;;
32705;SDS011;19094;50.972;3.538;2022-11-27T00:46:24;12.82;;;5.53;;
32705;SDS011;19094;50.972;3.538;2022-11-27T00:48:52;13.55;;;5.40;;
32705;SDS011;19094;50.972;3.538;2022-11-27T00:51:19;15.82;;;6.35;;
32705;SDS011;19094;50.972;3.538;2022-11-27T00:53:45;12.52;;;5.28;;
32705;SDS011;19094;50.972;3.538;2022-11-27T00:56:16;16.60;;;5.75;;
32705;SDS011;19094;50.972;3.538;2022-11-27T00:58:50;14.80;;;5.40;;
32705;SDS011;19094;50.972;3.538;2022-11-27T01:01:20;11.85;;;6.32;;
32705;SDS011;19094;50.972;3.538;2022-11-27T01:03:57;16.25;;;6.15;;
32705;SDS011;19094;50.972;3.538;2022-11-27T01:06:24;11.02;;;5.70;;
32705;SDS011;19094;50.972;3.538;2022-11-27T01:08:51;14.35;;;5.65;;
32705;SDS011;19094;50.972;3.538;2022-11-27T01:11:17;12.95;;;5.28;;
32705;SDS011;19094;50.972;3.538;2022-11-27T01:13:45;18.88;;;5.75;;
32705;SDS011;19094;50.972;3.538;2022-11-27T01:16:15;12.93;;;5.68;;
32705;SDS011;19094;50.972;3.538;2022-11-27T01:18:43;15.75;;;6.32;;
32705;SDS011;19094;50.972;3.538;2022-11-27T01:21:10;14.23;;;6.07;;
32705;SDS011;19094;50.972;3.538;2022-11-27T01:23:37;19.27;;;6.45;;
32705;SDS011;19094;50.972;3.538;2022-11-27T01:26:04;22.15;;;6.68;;
32705;SDS011;19094;50.972;3.538;2022-11-27T01:28:31;12.85;;;6.10;;
32705;SDS011;19094;50.972;3.538;2022-11-27T01:30:57;21.40;;;6.72;;
32705;SDS011;19094;50.972;3.538;2022-11-27T01:33:23;19.58;;;6.95;;
32705;SDS011;19094;50.972;3.538;2022-11-27T01:35:55;14.05;;;6.15;;
32705;SDS011;19094;50.972;3.538;2022-11-27T01:38:23;15.70;;;6.10;;
32705;SDS011;19094;50.972;3.538;2022-11-27T01:40:55;12.75;;;5.75;;
32705;SDS011;19094;50.972;3.538;2022-11-27T01:43:50;17.02;;;6.53;;
32705;SDS011;19094;50.972;3.538;2022-11-27T01:46:39;15.75;;;5.90;;
32705;SDS011;19094;50.972;3.538;2022-11-27T01:51:46;22.65;;;6.40;;
32705;SDS011;19094;50.972;3.538;2022-11-27T01:54:26;15.90;;;6.53;;
32705;SDS011;19094;50.972;3.538;2022-11-27T01:57:04;11.02;;;4.70;;
32705;SDS011;19094;50.972;3.538;2022-11-27T01:59:35;15.57;;;5.32;;
32705;SDS011;19094;50.972;3.538;2022-11-27T02:02:01;15.65;;;5.38;;
32705;SDS011;19094;50.972;3.538;2022-11-27T02:04:27;15.15;;;5.20;;
32705;SDS011;19094;50.972;3.538;2022-11-27T02:06:54;13.55;;;5.45;;
32705;SDS011;19094;50.972;3.538;2022-11-27T02:09:22;15.50;;;5.40;;
32705;SDS011;19094;50.972;3.538;2022-11-27T02:20:18;17.63;;;5.05;;
32705;SDS011;19094;50.972;3.538;2022-11-27T02:26:07;17.00;;;5.13;;
32705;SDS011;19094;50.972;3.538;2022-11-27T02:34:34;15.82;;;4.68;;
32705;SDS011;19094;50.972;3.538;2022-11-27T02:37:30;23.25;;;5.20;;
32705;SDS011;19094;50.972;3.538;2022-11-27T02:40:17;16.60;;;5.13;;
32705;SDS011;19094;50.972;3.538;2022-11-27T02:43:15;16.63;;;4.88;;
32705;SDS011;19094;50.972;3.538;2022-11-27T02:45:47;15.63;;;4.55;;
32705;SDS011;19094;50.972;3.538;2022-11-27T02:48:15;20.55;;;4.78;;
32705;SDS011;19094;50.972;3.538;2022-11-27T02:50:45;15.25;;;4.22;;
32705;SDS011;19094;50.972;3.538;2022-11-27T02:53:17;13.15;;;4.13;;
32705;SDS011;19094;50.972;3.538;2022-11-27T02:55:49;12.23;;;4.30;;
32705;SDS011;19094;50.972;3.538;2022-11-27T02:58:19;15.82;;;3.88;;
32705;SDS011;19094;50.972;3.538;2022-11-27T03:00:46;17.75;;;4.68;;
32705;SDS011;19094;50.972;3.538;2022-11-27T03:03:15;14.25;;;4.20;;
32705;SDS011;19094;50.972;3.538;2022-11-27T03:05:45;15.35;;;4.78;;
32705;SDS011;19094;50.972;3.538;2022-11-27T03:08:17;21.63;;;4.32;;
32705;SDS011;19094;50.972;3.538;2022-11-27T03:11:05;15.23;;;4.28;;
32705;SDS011;19094;50.972;3.538;2022-11-27T03:13:35;10.43;;;3.75;;
32705;SDS011;19094;50.972;3.538;2022-11-27T03:16:07;14.65;;;4.50;;
32705;SDS011;19094;50.972;3.538;2022-11-27T03:18:54;17.42;;;4.78;;
32705;SDS011;19094;50.972;3.538;2022-11-27T03:21:58;21.05;;;3.65;;
32705;SDS011;19094;50.972;3.538;2022-11-27T03:24:26;14.05;;;4.07;;
32705;SDS011;19094;50.972;3.538;2022-11-27T03:26:54;17.08;;;3.97;;
32705;SDS011;19094;50.972;3.538;2022-11-27T03:29:26;8.90;;;4.65;;
32705;SDS011;19094;50.972;3.538;2022-11-27T03:32:00;14.30;;;4.07;;
32705;SDS011;19094;50.972;3.538;2022-11-27T03:34:26;15.48;;;3.45;;
32705;SDS011;19094;50.972;3.538;2022-11-27T03:36:53;15.02;;;4.50;;
32705;SDS011;19094;50.972;3.538;2022-11-27T03:39:19;16.58;;;4.45;;
32705;SDS011;19094;50.972;3.538;2022-11-27T03:53:46;12.43;;;3.85;;
32705;SDS011;19094;50.972;3.538;2022-11-27T03:58:57;10.65;;;3.55;;
32705;SDS011;19094;50.972;3.538;2022-11-27T04:01:27;9.40;;;3.60;;
32705;SDS011;19094;50.972;3.538;2022-11-27T04:03:53;16.35;;;4.57;;
32705;SDS011;19094;50.972;3.538;2022-11-27T04:06:19;15.73;;;3.88;;
32705;SDS011;19094;50.972;3.538;2022-11-27T04:08:45;10.43;;;3.28;;
32705;SDS011;19094;50.972;3.538;2022-11-27T04:11:11;13.27;;;4.20;;
32705;SDS011;19094;50.972;3.538;2022-11-27T04:13:37;13.73;;;3.95;;
32705;SDS011;19094;50.972;3.538;2022-11-27T04:16:03;13.05;;;3.88;;
32705;SDS011;19094;50.972;3.538;2022-11-27T04:18:29;13.75;;;3.60;;
32705;SDS011;19094;50.972;3.538;2022-11-27T04:20:55;13.00;;;3.63;;
32705;SDS011;19094;50.972;3.538;2022-11-27T04:23:21;12.43;;;3.38;;
32705;SDS011;19094;50.972;3.538;2022-11-27T04:25:46;16.45;;;3.60;;
32705;SDS011;19094;50.972;3.538;2022-11-27T04:28:13;11.18;;;3.47;;
32705;SDS011;19094;50.972;3.538;2022-11-27T04:30:38;13.88;;;3.42;;
32705;SDS011;19094;50.972;3.538;2022-11-27T04:33:04;17.83;;;3.63;;
32705;SDS011;19094;50.972;3.538;2022-11-27T04:35:30;15.15;;;3.45;;
32705;SDS011;19094;50.972;3.538;2022-11-27T04:37:56;18.33;;;4.30;;
32705;SDS011;19094;50.972;3.538;2022-11-27T04:40:22;14.93;;;3.33;;
32705;SDS011;19094;50.972;3.538;2022-11-27T04:42:48;12.13;;;3.50;;
32705;SDS011;19094;50.972;3.538;2022-11-27T04:45:14;9.73;;;2.75;;
32705;SDS011;19094;50.972;3.538;2022-11-27T04:47:41;13.00;;;3.58;;
32705;SDS011;19094;50.972;3.538;2022-11-27T04:50:07;12.32;;;3.33;;
32705;SDS011;19094;50.972;3.538;2022-11-27T04:52:33;9.30;;;2.90;;
32705;SDS011;19094;50.972;3.538;2022-11-27T04:54:58;10.88;;;3.45;;
32705;SDS011;19094;50.972;3.538;2022-11-27T04:57:24;12.07;;;3.55;;
32705;SDS011;19094;50.972;3.538;2022-11-27T04:59:50;10.75;;;2.90;;
32705;SDS011;19094;50.972;3.538;2022-11-27T05:02:15;13.98;;;3.92;;
32705;SDS011;19094;50.972;3.538;2022-11-27T05:04:41;14.25;;;3.60;;
32705;SDS011;19094;50.972;3.538;2022-11-27T05:07:07;14.73;;;3.33;;
32705;SDS011;19094;50.972;3.538;2022-11-27T05:09:32;15.27;;;3.20;;
32705;SDS011;19094;50.972;3.538;2022-11-27T05:11:58;12.35;;;3.53;;
32705;SDS011;19094;50.972;3.538;2022-11-27T05:14:23;8.77;;;3.47;;
32705;SDS011;19094;50.972;3.538;2022-11-27T05:16:53;18.42;;;5.35;;
32705;SDS011;19094;50.972;3.538;2022-11-27T05:19:22;9.18;;;3.55;;
32705;SDS011;19094;50.972;3.538;2022-11-27T05:21:49;12.55;;;3.13;;
32705;SDS011;19094;50.972;3.538;2022-11-27T05:24:16;11.45;;;3.00;;
32705;SDS011;19094;50.972;3.538;2022-11-27T05:26:43;10.32;;;3.28;;
32705;SDS011;19094;50.972;3.538;2022-11-27T05:29:09;11.40;;;3.42;;
32705;SDS011;19094;50.972;3.538;2022-11-27T05:31:36;10.93;;;3.75;;
32705;SDS011;19094;50.972;3.538;2022-11-27T05:34:01;7.18;;;3.10;;
32705;SDS011;19094;50.972;3.538;2022-11-27T05:36:28;12.30;;;3.38;;
32705;SDS011;19094;50.972;3.538;2022-11-27T05:38:54;11.57;;;4.05;;
32705;SDS011;19094;50.972;3.538;2022-11-27T05:41:19;7.75;;;3.15;;
32705;SDS011;19094;50.972;3.538;2022-11-27T05:43:45;10.82;;;3.47;;
32705;SDS011;19094;50.972;3.538;2022-11-27T05:46:12;9.98;;;3.58;;
32705;SDS011;19094;50.972;3.538;2022-11-27T05:48:39;17.45;;;4.28;;
32705;SDS011;19094;50.972;3.538;2022-11-27T05:51:05;13.30;;;3.70;;
32705;SDS011;19094;50.972;3.538;2022-11-27T05:53:31;12.43;;;3.75;;
32705;SDS011;19094;50.972;3.538;2022-11-27T05:56:00;8.32;;;3.47;;
32705;SDS011;19094;50.972;3.538;2022-11-27T05:58:28;13.93;;;3.80;;
32705;SDS011;19094;50.972;3.538;2022-11-27T06:00:54;6.72;;;3.58;;
32705;SDS011;19094;50.972;3.538;2022-11-27T06:03:19;10.63;;;3.83;;
32705;SDS011;19094;50.972;3.538;2022-11-27T06:05:45;9.85;;;3.70;;
32705;SDS011;19094;50.972;3.538;2022-11-27T06:08:10;10.13;;;3.58;;
32705;SDS011;19094;50.972;3.538;2022-11-27T06:10:37;13.50;;;3.65;;
32705;SDS011;19094;50.972;3.538;2022-11-27T06:13:03;8.10;;;3.75;;
32705;SDS011;19094;50.972;3.538;2022-11-27T06:15:29;10.77;;;3.72;;
32705;SDS011;19094;50.972;3.538;2022-11-27T06:17:54;16.63;;;3.65;;
32705;SDS011;19094;50.972;3.538;2022-11-27T06:20:20;9.40;;;3.15;;
32705;SDS011;19094;50.972;3.538;2022-11-27T06:22:46;11.43;;;3.70;;
32705;SDS011;19094;50.972;3.538;2022-11-27T06:25:11;10.88;;;3.38;;
32705;SDS011;19094;50.972;3.538;2022-11-27T06:27:37;10.70;;;3.78;;
32705;SDS011;19094;50.972;3.538;2022-11-27T06:30:03;15.38;;;4.30;;
32705;SDS011;19094;50.972;3.538;2022-11-27T06:32:30;11.00;;;4.15;;
32705;SDS011;19094;50.972;3.538;2022-11-27T06:34:55;14.07;;;3.88;;
32705;SDS011;19094;50.972;3.538;2022-11-27T06:37:21;8.68;;;3.40;;
32705;SDS011;19094;50.972;3.538;2022-11-27T06:39:47;10.57;;;3.88;;
32705;SDS011;19094;50.972;3.538;2022-11-27T06:42:13;10.40;;;3.58;;
32705;SDS011;19094;50.972;3.538;2022-11-27T06:44:39;12.98;;;3.83;;
32705;SDS011;19094;50.972;3.538;2022-11-27T06:47:05;14.07;;;3.50;;
32705;SDS011;19094;50.972;3.538;2022-11-27T06:49:31;10.27;;;3.28;;
32705;SDS011;19094;50.972;3.538;2022-11-27T06:51:56;8.90;;;4.00;;
32705;SDS011;19094;50.972;3.538;2022-11-27T06:54:22;14.82;;;4.10;;
32705;SDS011;19094;50.972;3.538;2022-11-27T06:56:48;11.15;;;3.40;;
32705;SDS011;19094;50.972;3.538;2022-11-27T06:59:15;13.55;;;4.22;;
32705;SDS011;19094;50.972;3.538;2022-11-27T07:01:41;9.48;;;3.72;;
32705;SDS011;19094;50.972;3.538;2022-11-27T07:04:11;10.13;;;4.13;;
32705;SDS011;19094;50.972;3.538;2022-11-27T07:06:38;12.68;;;3.65;;
32705;SDS011;19094;50.972;3.538;2022-11-27T07:09:05;7.25;;;3.67;;
32705;SDS011;19094;50.972;3.538;2022-11-27T07:11:31;14.80;;;3.80;;
32705;SDS011;19094;50.972;3.538;2022-11-27T07:13:58;7.22;;;3.30;;
32705;SDS011;19094;50.972;3.538;2022-11-27T07:16:28;12.95;;;4.65;;
32705;SDS011;19094;50.972;3.538;2022-11-27T07:19:00;11.93;;;4.03;;
32705;SDS011;19094;50.972;3.538;2022-11-27T07:21:28;8.80;;;3.28;;
32705;SDS011;19094;50.972;3.538;2022-11-27T07:23:54;9.15;;;3.58;;
32705;SDS011;19094;50.972;3.538;2022-11-27T07:26:21;11.07;;;3.60;;
32705;SDS011;19094;50.972;3.538;2022-11-27T07:28:48;14.48;;;3.65;;
32705;SDS011;19094;50.972;3.538;2022-11-27T07:31:15;6.80;;;3.17;;
32705;SDS011;19094;50.972;3.538;2022-11-27T07:33:42;9.07;;;3.65;;
32705;SDS011;19094;50.972;3.538;2022-11-27T07:36:29;7.18;;;3.33;;
32705;SDS011;19094;50.972;3.538;2022-11-27T07:38:54;10.35;;;4.30;;
32705;SDS011;19094;50.972;3.538;2022-11-27T07:41:21;8.98;;;3.40;;
32705;SDS011;19094;50.972;3.538;2022-11-27T07:43:47;8.68;;;4.20;;
32705;SDS011;19094;50.972;3.538;2022-11-27T07:46:17;8.88;;;3.60;;
32705;SDS011;19094;50.972;3.538;2022-11-27T07:48:44;8.88;;;3.80;;
32705;SDS011;19094;50.972;3.538;2022-11-27T07:51:11;11.90;;;3.58;;
32705;SDS011;19094;50.972;3.538;2022-11-27T07:53:38;11.20;;;3.95;;
32705;SDS011;19094;50.972;3.538;2022-11-27T07:56:05;9.10;;;3.60;;
32705;SDS011;19094;50.972;3.538;2022-11-27T07:58:33;9.75;;;3.95;;
32705;SDS011;19094;50.972;3.538;2022-11-27T08:00:59;10.50;;;3.42;;
32705;SDS011;19094;50.972;3.538;2022-11-27T08:03:24;9.63;;;3.67;;
32705;SDS011;19094;50.972;3.538;2022-11-27T08:05:50;8.65;;;3.75;;
32705;SDS011;19094;50.972;3.538;2022-11-27T08:08:16;6.45;;;3.40;;
32705;SDS011;19094;50.972;3.538;2022-11-27T08:10:41;7.25;;;3.20;;
32705;SDS011;19094;50.972;3.538;2022-11-27T08:13:07;9.63;;;3.47;;
32705;SDS011;19094;50.972;3.538;2022-11-27T08:15:34;6.95;;;2.85;;
32705;SDS011;19094;50.972;3.538;2022-11-27T08:18:01;9.05;;;3.97;;
32705;SDS011;19094;50.972;3.538;2022-11-27T08:20:26;8.48;;;3.38;;
32705;SDS011;19094;50.972;3.538;2022-11-27T08:22:52;11.27;;;3.88;;
32705;SDS011;19094;50.972;3.538;2022-11-27T08:25:18;10.00;;;3.80;;
32705;SDS011;19094;50.972;3.538;2022-11-27T08:27:44;5.43;;;2.95;;
32705;SDS011;19094;50.972;3.538;2022-11-27T08:30:12;10.02;;;3.83;;
32705;SDS011;19094;50.972;3.538;2022-11-27T08:32:38;8.85;;;3.42;;
32705;SDS011;19094;50.972;3.538;2022-11-27T08:35:06;8.57;;;3.55;;
32705;SDS011;19094;50.972;3.538;2022-11-27T08:37:33;8.15;;;3.45;;
32705;SDS011;19094;50.972;3.538;2022-11-27T08:39:58;10.32;;;4.05;;
32705;SDS011;19094;50.972;3.538;2022-11-27T08:42:24;7.68;;;3.60;;
32705;SDS011;19094;50.972;3.538;2022-11-27T08:44:50;10.02;;;3.63;;
32705;SDS011;19094;50.972;3.538;2022-11-27T08:47:15;7.05;;;3.25;;
32705;SDS011;19094;50.972;3.538;2022-11-27T08:49:42;7.13;;;3.08;;
32705;SDS011;19094;50.972;3.538;2022-11-27T08:52:08;8.43;;;4.35;;
32705;SDS011;19094;50.972;3.538;2022-11-27T08:54:34;9.90;;;3.88;;
32705;SDS011;19094;50.972;3.538;2022-11-27T08:56:59;8.38;;;3.45;;
32705;SDS011;19094;50.972;3.538;2022-11-27T08:59:25;8.77;;;3.70;;
32705;SDS011;19094;50.972;3.538;2022-11-27T09:01:51;8.65;;;3.53;;
32705;SDS011;19094;50.972;3.538;2022-11-27T09:04:16;9.68;;;4.28;;
32705;SDS011;19094;50.972;3.538;2022-11-27T09:06:42;10.95;;;4.45;;
32705;SDS011;19094;50.972;3.538;2022-11-27T09:09:08;7.75;;;3.85;;
32705;SDS011;19094;50.972;3.538;2022-11-27T09:11:34;9.90;;;4.43;;
32705;SDS011;19094;50.972;3.538;2022-11-27T09:14:01;10.68;;;4.07;;
32705;SDS011;19094;50.972;3.538;2022-11-27T09:16:28;9.50;;;4.20;;
32705;SDS011;19094;50.972;3.538;2022-11-27T09:18:54;11.25;;;5.00;;
32705;SDS011;19094;50.972;3.538;2022-11-27T09:21:21;7.28;;;4.13;;
32705;SDS011;19094;50.972;3.538;2022-11-27T09:23:52;10.73;;;4.22;;
32705;SDS011;19094;50.972;3.538;2022-11-27T09:26:18;9.65;;;4.13;;
32705;SDS011;19094;50.972;3.538;2022-11-27T09:28:44;13.00;;;4.20;;
32705;SDS011;19094;50.972;3.538;2022-11-27T09:31:11;12.45;;;3.97;;
32705;SDS011;19094;50.972;3.538;2022-11-27T09:33:39;14.05;;;3.92;;
32705;SDS011;19094;50.972;3.538;2022-11-27T09:36:06;11.88;;;5.88;;
32705;SDS011;19094;50.972;3.538;2022-11-27T09:38:36;9.70;;;4.20;;
32705;SDS011;19094;50.972;3.538;2022-11-27T09:41:11;12.52;;;4.35;;
32705;SDS011;19094;50.972;3.538;2022-11-27T09:44:02;10.23;;;4.50;;
32705;SDS011;19094;50.972;3.538;2022-11-27T09:46:48;11.90;;;4.90;;
32705;SDS011;19094;50.972;3.538;2022-11-27T09:49:16;8.07;;;4.03;;
32705;SDS011;19094;50.972;3.538;2022-11-27T09:52:14;13.52;;;5.30;;
32705;SDS011;19094;50.972;3.538;2022-11-27T09:55:08;11.07;;;4.68;;
32705;SDS011;19094;50.972;3.538;2022-11-27T09:58:09;7.65;;;3.72;;
32705;SDS011;19094;50.972;3.538;2022-11-27T10:00:43;10.35;;;4.78;;
32705;SDS011;19094;50.972;3.538;2022-11-27T10:03:14;10.18;;;4.05;;
32705;SDS011;19094;50.972;3.538;2022-11-27T10:05:47;10.43;;;4.80;;
32705;SDS011;19094;50.972;3.538;2022-11-27T10:08:57;12.68;;;4.53;;
32705;SDS011;19094;50.972;3.538;2022-11-27T10:11:29;10.32;;;4.88;;
32705;SDS011;19094;50.972;3.538;2022-11-27T10:14:04;12.23;;;4.43;;
32705;SDS011;19094;50.972;3.538;2022-11-27T10:19:17;7.40;;;4.30;;
32705;SDS011;19094;50.972;3.538;2022-11-27T10:23:24;14.18;;;5.05;;
32705;SDS011;19094;50.972;3.538;2022-11-27T10:33:47;8.55;;;5.35;;
32705;SDS011;19094;50.972;3.538;2022-11-27T10:36:21;10.30;;;4.70;;
32705;SDS011;19094;50.972;3.538;2022-11-27T10:38:51;10.75;;;3.92;;
32705;SDS011;19094;50.972;3.538;2022-11-27T10:41:27;9.68;;;4.63;;
32705;SDS011;19094;50.972;3.538;2022-11-27T10:44:18;10.48;;;4.65;;
32705;SDS011;19094;50.972;3.538;2022-11-27T10:46:46;10.48;;;4.63;;
32705;SDS011;19094;50.972;3.538;2022-11-27T10:49:14;12.05;;;4.70;;
32705;SDS011;19094;50.972;3.538;2022-11-27T10:51:40;9.32;;;4.20;;
32705;SDS011;19094;50.972;3.538;2022-11-27T10:54:06;8.27;;;4.25;;
32705;SDS011;19094;50.972;3.538;2022-11-27T10:56:51;9.05;;;4.03;;
32705;SDS011;19094;50.972;3.538;2022-11-27T10:59:29;11.15;;;4.70;;
32705;SDS011;19094;50.972;3.538;2022-11-27T11:01:59;12.77;;;4.70;;
32705;SDS011;19094;50.972;3.538;2022-11-27T11:04:28;13.93;;;5.47;;
32705;SDS011;19094;50.972;3.538;2022-11-27T11:06:55;9.43;;;4.47;;
32705;SDS011;19094;50.972;3.538;2022-11-27T11:09:25;12.73;;;5.25;;
32705;SDS011;19094;50.972;3.538;2022-11-27T11:12:05;9.38;;;5.40;;
32705;SDS011;19094;50.972;3.538;2022-11-27T11:14:31;12.20;;;5.10;;
32705;SDS011;19094;50.972;3.538;2022-11-27T11:16:57;8.95;;;5.25;;
32705;SDS011;19094;50.972;3.538;2022-11-27T11:22:04;11.55;;;5.00;;
32705;SDS011;19094;50.972;3.538;2022-11-27T11:24:44;11.63;;;5.60;;
32705;SDS011;19094;50.972;3.538;2022-11-27T11:27:18;9.77;;;4.90;;
32705;SDS011;19094;50.972;3.538;2022-11-27T11:29:53;8.63;;;4.32;;
32705;SDS011;19094;50.972;3.538;2022-11-27T11:32:23;8.95;;;5.32;;
32705;SDS011;19094;50.972;3.538;2022-11-27T11:37:45;13.00;;;5.07;;
32705;SDS011;19094;50.972;3.538;2022-11-27T11:45:27;10.70;;;4.85;;
32705;SDS011;19094;50.972;3.538;2022-11-27T11:47:55;14.82;;;7.90;;
32705;SDS011;19094;50.972;3.538;2022-11-27T11:50:30;14.65;;;7.32;;
32705;SDS011;19094;50.972;3.538;2022-11-27T11:53:31;9.00;;;4.70;;
32705;SDS011;19094;50.972;3.538;2022-11-27T11:59:09;12.40;;;4.25;;
32705;SDS011;19094;50.972;3.538;2022-11-27T12:05:17;17.02;;;5.55;;
32705;SDS011;19094;50.972;3.538;2022-11-27T12:10:52;12.10;;;4.75;;
32705;SDS011;19094;50.972;3.538;2022-11-27T12:13:32;17.38;;;5.55;;
32705;SDS011;19094;50.972;3.538;2022-11-27T12:27:06;11.75;;;6.03;;
32705;SDS011;19094;50.972;3.538;2022-11-27T12:32:52;13.52;;;5.15;;
32705;SDS011;19094;50.972;3.538;2022-11-27T12:43:52;17.63;;;7.00;;
32705;SDS011;19094;50.972;3.538;2022-11-27T12:54:58;15.98;;;5.70;;
32705;SDS011;19094;50.972;3.538;2022-11-27T13:00:06;17.30;;;5.35;;
32705;SDS011;19094;50.972;3.538;2022-11-27T13:02:52;14.75;;;6.40;;
32705;SDS011;19094;50.972;3.538;2022-11-27T13:05:27;16.92;;;6.65;;
32705;SDS011;19094;50.972;3.538;2022-11-27T13:10:39;17.15;;;7.38;;
32705;SDS011;19094;50.972;3.538;2022-11-27T13:13:28;19.88;;;7.18;;
32705;SDS011;19094;50.972;3.538;2022-11-27T13:16:07;18.10;;;7.35;;
32705;SDS011;19094;50.972;3.538;2022-11-27T13:18:43;14.82;;;6.65;;
32705;SDS011;19094;50.972;3.538;2022-11-27T13:21:27;16.02;;;6.95;;
32705;SDS011;19094;50.972;3.538;2022-11-27T13:23:55;12.52;;;6.05;;
32705;SDS011;19094;50.972;3.538;2022-11-27T13:26:26;18.00;;;6.82;;
32705;SDS011;19094;50.972;3.538;2022-11-27T13:29:05;17.20;;;6.40;;
32705;SDS011;19094;50.972;3.538;2022-11-27T13:31:38;22.83;;;9.48;;
32705;SDS011;19094;50.972;3.538;2022-11-27T13:34:07;21.75;;;7.80;;
32705;SDS011;19094;50.972;3.538;2022-11-27T13:39:24;14.00;;;6.30;;
32705;SDS011;19094;50.972;3.538;2022-11-27T13:44:36;21.83;;;7.43;;
32705;SDS011;19094;50.972;3.538;2022-11-27T13:47:08;10.15;;;5.82;;
32705;SDS011;19094;50.972;3.538;2022-11-27T13:49:37;13.90;;;6.03;;
32705;SDS011;19094;50.972;3.538;2022-11-27T13:52:16;14.25;;;5.00;;
32705;SDS011;19094;50.972;3.538;2022-11-27T13:54:54;13.40;;;6.07;;
32705;SDS011;19094;50.972;3.538;2022-11-27T13:57:25;14.02;;;6.40;;
32705;SDS011;19094;50.972;3.538;2022-11-27T14:00:53;16.02;;;6.78;;
32705;SDS011;19094;50.972;3.538;2022-11-27T14:03:06;12.50;;;5.70;;
32705;SDS011;19094;50.972;3.538;2022-11-27T14:05:45;11.88;;;5.85;;
32705;SDS011;19094;50.972;3.538;2022-11-27T14:08:22;13.82;;;5.60;;
32705;SDS011;19094;50.972;3.538;2022-11-27T14:13:50;26.00;;;10.13;;
32705;SDS011;19094;50.972;3.538;2022-11-27T14:16:19;12.15;;;6.13;;
32705;SDS011;19094;50.972;3.538;2022-11-27T14:18:56;13.57;;;6.15;;
32705;SDS011;19094;50.972;3.538;2022-11-27T14:21:39;10.75;;;4.95;;
32705;SDS011;19094;50.972;3.538;2022-11-27T14:26:59;12.55;;;6.22;;
32705;SDS011;19094;50.972;3.538;2022-11-27T14:29:28;18.70;;;8.15;;
32705;SDS011;19094;50.972;3.538;2022-11-27T14:31:58;11.00;;;5.05;;
32705;SDS011;19094;50.972;3.538;2022-11-27T14:34:29;14.73;;;6.30;;
32705;SDS011;19094;50.972;3.538;2022-11-27T14:36:55;14.32;;;6.38;;
32705;SDS011;19094;50.972;3.538;2022-11-27T14:39:34;10.93;;;5.45;;
32705;SDS011;19094;50.972;3.538;2022-11-27T14:42:05;11.30;;;5.18;;
32705;SDS011;19094;50.972;3.538;2022-11-27T14:44:32;12.38;;;5.57;;
32705;SDS011;19094;50.972;3.538;2022-11-27T14:47:02;13.52;;;7.03;;
32705;SDS011;19094;50.972;3.538;2022-11-27T14:49:30;10.32;;;4.93;;
32705;SDS011;19094;50.972;3.538;2022-11-27T14:52:07;12.05;;;5.25;;
32705;SDS011;19094;50.972;3.538;2022-11-27T14:54:40;15.80;;;6.25;;
32705;SDS011;19094;50.972;3.538;2022-11-27T14:57:22;12.63;;;5.72;;
32705;SDS011;19094;50.972;3.538;2022-11-27T15:02:40;14.45;;;6.13;;
32705;SDS011;19094;50.972;3.538;2022-11-27T15:05:15;11.32;;;5.72;;
32705;SDS011;19094;50.972;3.538;2022-11-27T15:07:43;12.60;;;6.82;;
32705;SDS011;19094;50.972;3.538;2022-11-27T15:10:19;13.95;;;6.93;;
32705;SDS011;19094;50.972;3.538;2022-11-27T15:12:47;13.73;;;5.50;;
32705;SDS011;19094;50.972;3.538;2022-11-27T15:15:18;19.83;;;6.50;;
32705;SDS011;19094;50.972;3.538;2022-11-27T15:17:46;13.18;;;7.38;;
32705;SDS011;19094;50.972;3.538;2022-11-27T15:20:17;17.33;;;7.13;;
32705;SDS011;19094;50.972;3.538;2022-11-27T15:22:57;12.13;;;6.90;;
32705;SDS011;19094;50.972;3.538;2022-11-27T15:25:43;13.40;;;7.82;;
32705;SDS011;19094;50.972;3.538;2022-11-27T15:28:48;11.57;;;6.20;;
32705;SDS011;19094;50.972;3.538;2022-11-27T15:31:20;12.48;;;6.43;;
32705;SDS011;19094;50.972;3.538;2022-11-27T15:34:00;13.57;;;6.68;;
32705;SDS011;19094;50.972;3.538;2022-11-27T15:36:34;18.35;;;6.63;;
32705;SDS011;19094;50.972;3.538;2022-11-27T15:41:56;9.88;;;5.07;;
32705;SDS011;19094;50.972;3.538;2022-11-27T15:44:27;17.17;;;7.97;;
32705;SDS011;19094;50.972;3.538;2022-11-27T15:46:55;13.13;;;5.90;;
32705;SDS011;19094;50.972;3.538;2022-11-27T15:49:23;11.95;;;5.22;;
32705;SDS011;19094;50.972;3.538;2022-11-27T15:51:49;10.65;;;5.35;;
32705;SDS011;19094;50.972;3.538;2022-11-27T15:54:14;9.90;;;5.93;;
32705;SDS011;19094;50.972;3.538;2022-11-27T15:56:41;11.25;;;6.68;;
32705;SDS011;19094;50.972;3.538;2022-11-27T15:59:07;11.68;;;6.28;;
32705;SDS011;19094;50.972;3.538;2022-11-27T16:01:34;12.18;;;7.68;;
32705;SDS011;19094;50.972;3.538;2022-11-27T16:04:00;12.95;;;7.50;;
32705;SDS011;19094;50.972;3.538;2022-11-27T16:06:27;12.82;;;5.78;;
32705;SDS011;19094;50.972;3.538;2022-11-27T16:08:56;12.48;;;6.85;;
32705;SDS011;19094;50.972;3.538;2022-11-27T16:11:23;18.80;;;8.15;;
32705;SDS011;19094;50.972;3.538;2022-11-27T16:13:49;13.10;;;5.38;;
32705;SDS011;19094;50.972;3.538;2022-11-27T16:16:15;13.85;;;5.97;;
32705;SDS011;19094;50.972;3.538;2022-11-27T16:18:41;9.93;;;5.40;;
32705;SDS011;19094;50.972;3.538;2022-11-27T16:21:07;18.75;;;7.90;;
32705;SDS011;19094;50.972;3.538;2022-11-27T16:23:35;12.43;;;6.40;;
32705;SDS011;19094;50.972;3.538;2022-11-27T16:26:01;22.35;;;11.90;;
32705;SDS011;19094;50.972;3.538;2022-11-27T16:28:27;37.65;;;19.60;;
32705;SDS011;19094;50.972;3.538;2022-11-27T16:30:55;14.75;;;7.07;;
32705;SDS011;19094;50.972;3.538;2022-11-27T16:33:25;15.85;;;7.93;;
32705;SDS011;19094;50.972;3.538;2022-11-27T16:35:54;17.45;;;7.30;;
32705;SDS011;19094;50.972;3.538;2022-11-27T16:38:20;12.35;;;5.82;;
32705;SDS011;19094;50.972;3.538;2022-11-27T16:40:49;8.70;;;5.20;;
32705;SDS011;19094;50.972;3.538;2022-11-27T16:43:15;12.30;;;6.38;;
32705;SDS011;19094;50.972;3.538;2022-11-27T16:45:41;12.68;;;8.20;;
32705;SDS011;19094;50.972;3.538;2022-11-27T16:48:06;12.80;;;5.88;;
32705;SDS011;19094;50.972;3.538;2022-11-27T16:50:32;13.65;;;6.03;;
32705;SDS011;19094;50.972;3.538;2022-11-27T16:52:58;16.35;;;6.38;;
32705;SDS011;19094;50.972;3.538;2022-11-27T16:55:24;13.07;;;4.97;;
32705;SDS011;19094;50.972;3.538;2022-11-27T16:57:50;16.38;;;6.28;;